sensor_id;sensor_type;location;lat;lon;timestamp;temperature;humidity
6377;DHT22;3221;48.858;10.128;2022-12-11T00:00:20;-1.10;99.90
6377;DHT22;3221;48.858;10.128;2022-12-11T00:02:47;-1.00;99.90
6377;DHT22;3221;48.858;10.128;2022-12-11T00:05:15;-1.00;99.90
6377;DHT22;3221;48.858;10.128;2022-12-11T00:07:42;-1.00;99.90
6377;DHT22;3221;48.858;10.128;2022-12-11T00:10:09;-1.00;99.90
6377;DHT22;3221;48.858;10.128;2022-12-11T00:12:35;-1.00;99.90
6377;DHT22;3221;48.858;10.128;2022-12-11T00:15:02;-1.00;99.90
6377;DHT22;3221;48.858;10.128;2022-12-11T00:17:29;-1.10;99.90
6377;DHT22;3221;48.858;10.128;2022-12-11T00:19:56;-1.10;99.90
6377;DHT22;3221;48.858;10.128;2022-12-11T00:22:23;-1.10;99.90
6377;DHT22;3221;48.858;10.128;2022-12-11T00:24:50;-1.00;99.90
6377;DHT22;3221;48.858;10.128;2022-12-11T00:27:17;-1.10;99.90
6377;DHT22;3221;48.858;10.128;2022-12-11T00:29:44;-1.10;99.90
6377;DHT22;3221;48.858;10.128;2022-12-11T00:32:11;-1.10;99.90
6377;DHT22;3221;48.858;10.128;2022-12-11T00:34:39;-1.10;99.90
6377;DHT22;3221;48.858;10.128;2022-12-11T00:37:06;-1.10;99.90
6377;DHT22;3221;48.858;10.128;2022-12-11T00:39:33;-1.00;99.90
6377;DHT22;3221;48.858;10.128;2022-12-11T00:41:59;-1.10;99.90
6377;DHT22;3221;48.858;10.128;2022-12-11T00:44:26;-1.10;99.90
6377;DHT22;3221;48.858;10.128;2022-12-11T00:46:53;-1.10;99.90
6377;DHT22;3221;48.858;10.128;2022-12-11T00:49:20;-1.10;99.90
6377;DHT22;3221;48.858;10.128;2022-12-11T00:51:47;-1.10;99.90
6377;DHT22;3221;48.858;10.128;2022-12-11T00:54:14;-1.10;99.90
6377;DHT22;3221;48.858;10.128;2022-12-11T00:56:41;-1.10;99.90
6377;DHT22;3221;48.858;10.128;2022-12-11T00:59:08;-1.10;99.90
6377;DHT22;3221;48.858;10.128;2022-12-11T01:01:35;-1.10;99.90
6377;DHT22;3221;48.858;10.128;2022-12-11T01:04:02;-1.10;99.90
6377;DHT22;3221;48.858;10.128;2022-12-11T01:06:29;-1.00;99.90
6377;DHT22;3221;48.858;10.128;2022-12-11T01:08:56;-1.00;99.90
6377;DHT22;3221;48.858;10.128;2022-12-11T01:11:42;-1.00;99.90
6377;DHT22;3221;48.858;10.128;2022-12-11T01:14:10;-1.00;99.90
6377;DHT22;3221;48.858;10.128;2022-12-11T01:16:37;-1.00;99.90
6377;DHT22;3221;48.858;10.128;2022-12-11T01:19:04;-1.10;99.90
6377;DHT22;3221;48.858;10.128;2022-12-11T01:21:31;-1.10;99.90
6377;DHT22;3221;48.858;10.128;2022-12-11T01:23:57;-1.10;99.90
6377;DHT22;3221;48.858;10.128;2022-12-11T01:26:24;-1.10;99.90
6377;DHT22;3221;48.858;10.128;2022-12-11T01:28:51;-1.10;99.90
6377;DHT22;3221;48.858;10.128;2022-12-11T01:31:19;-1.10;99.90
6377;DHT22;3221;48.858;10.128;2022-12-11T01:33:46;-1.10;99.90
6377;DHT22;3221;48.858;10.128;2022-12-11T01:36:19;-1.10;99.90
6377;DHT22;3221;48.858;10.128;2022-12-11T01:38:47;-1.20;99.90
6377;DHT22;3221;48.858;10.128;2022-12-11T01:41:16;-0.90;99.90
6377;DHT22;3221;48.858;10.128;2022-12-11T01:44:05;-1.00;99.90
6377;DHT22;3221;48.858;10.128;2022-12-11T01:46:34;-1.00;99.90
6377;DHT22;3221;48.858;10.128;2022-12-11T01:49:05;-1.10;99.90
6377;DHT22;3221;48.858;10.128;2022-12-11T01:51:36;-0.90;99.90
6377;DHT22;3221;48.858;10.128;2022-12-11T01:54:08;-1.00;99.90
6377;DHT22;3221;48.858;10.128;2022-12-11T01:56:37;-1.00;99.90
6377;DHT22;3221;48.858;10.128;2022-12-11T01:59:07;-1.10;99.90
6377;DHT22;3221;48.858;10.128;2022-12-11T02:01:51;-1.10;99.90
6377;DHT22;3221;48.858;10.128;2022-12-11T02:04:20;-1.10;99.90
6377;DHT22;3221;48.858;10.128;2022-12-11T02:06:48;-1.20;99.90
6377;DHT22;3221;48.858;10.128;2022-12-11T02:09:19;-1.20;99.90
6377;DHT22;3221;48.858;10.128;2022-12-11T02:14:48;-1.20;99.90
6377;DHT22;3221;48.858;10.128;2022-12-11T02:17:21;-1.20;99.90
6377;DHT22;3221;48.858;10.128;2022-12-11T02:25:36;-1.20;99.90
6377;DHT22;3221;48.858;10.128;2022-12-11T02:28:22;-1.20;99.90
6377;DHT22;3221;48.858;10.128;2022-12-11T02:30:56;-1.20;99.90
6377;DHT22;3221;48.858;10.128;2022-12-11T02:33:41;-1.20;99.90
6377;DHT22;3221;48.858;10.128;2022-12-11T02:36:10;-1.20;99.90
6377;DHT22;3221;48.858;10.128;2022-12-11T02:38:40;-1.00;99.90
6377;DHT22;3221;48.858;10.128;2022-12-11T02:41:10;-1.10;99.90
6377;DHT22;3221;48.858;10.128;2022-12-11T02:43:38;-1.20;99.90
6377;DHT22;3221;48.858;10.128;2022-12-11T02:46:06;-1.20;99.90
6377;DHT22;3221;48.858;10.128;2022-12-11T02:48:35;-1.20;99.90
6377;DHT22;3221;48.858;10.128;2022-12-11T02:51:04;-1.20;99.90
6377;DHT22;3221;48.858;10.128;2022-12-11T02:53:34;-1.20;99.90
6377;DHT22;3221;48.858;10.128;2022-12-11T02:56:10;-1.20;99.90
6377;DHT22;3221;48.858;10.128;2022-12-11T02:58:44;-1.20;99.90
6377;DHT22;3221;48.858;10.128;2022-12-11T03:01:13;-1.20;99.90
6377;DHT22;3221;48.858;10.128;2022-12-11T03:03:40;-1.20;99.90
6377;DHT22;3221;48.858;10.128;2022-12-11T03:06:12;-1.30;99.90
6377;DHT22;3221;48.858;10.128;2022-12-11T03:08:39;-1.30;99.90
6377;DHT22;3221;48.858;10.128;2022-12-11T03:11:10;-1.20;99.90
6377;DHT22;3221;48.858;10.128;2022-12-11T03:13:39;-1.20;99.90
6377;DHT22;3221;48.858;10.128;2022-12-11T03:16:33;-1.20;99.90
6377;DHT22;3221;48.858;10.128;2022-12-11T03:22:11;-1.20;99.90
6377;DHT22;3221;48.858;10.128;2022-12-11T03:24:54;-1.10;99.90
6377;DHT22;3221;48.858;10.128;2022-12-11T03:27:41;-1.10;99.90
6377;DHT22;3221;48.858;10.128;2022-12-11T03:30:16;-1.20;99.90
6377;DHT22;3221;48.858;10.128;2022-12-11T03:33:27;-1.20;99.90
6377;DHT22;3221;48.858;10.128;2022-12-11T03:35:39;-1.00;99.90
6377;DHT22;3221;48.858;10.128;2022-12-11T03:38:31;-1.00;99.90
6377;DHT22;3221;48.858;10.128;2022-12-11T03:41:01;-1.00;99.90
6377;DHT22;3221;48.858;10.128;2022-12-11T03:43:30;-1.00;99.90
6377;DHT22;3221;48.858;10.128;2022-12-11T03:45:58;-1.00;99.90
6377;DHT22;3221;48.858;10.128;2022-12-11T03:48:32;-1.00;99.90
6377;DHT22;3221;48.858;10.128;2022-12-11T03:51:05;-1.10;99.90
6377;DHT22;3221;48.858;10.128;2022-12-11T03:53:33;-1.10;99.90
6377;DHT22;3221;48.858;10.128;2022-12-11T03:56:03;-1.10;99.90
6377;DHT22;3221;48.858;10.128;2022-12-11T03:58:31;-1.10;99.90
6377;DHT22;3221;48.858;10.128;2022-12-11T04:00:58;-1.10;99.90
6377;DHT22;3221;48.858;10.128;2022-12-11T04:03:25;-1.20;99.90
6377;DHT22;3221;48.858;10.128;2022-12-11T04:05:54;-1.10;99.90
6377;DHT22;3221;48.858;10.128;2022-12-11T04:08:21;-1.30;99.90
6377;DHT22;3221;48.858;10.128;2022-12-11T04:10:49;-1.30;99.90
6377;DHT22;3221;48.858;10.128;2022-12-11T04:13:37;-1.30;99.90
6377;DHT22;3221;48.858;10.128;2022-12-11T04:16:04;-1.20;99.90
6377;DHT22;3221;48.858;10.128;2022-12-11T04:18:31;-1.30;99.90
6377;DHT22;3221;48.858;10.128;2022-12-11T04:21:17;-1.20;99.90
6377;DHT22;3221;48.858;10.128;2022-12-11T04:24:06;-1.20;99.90
6377;DHT22;3221;48.858;10.128;2022-12-11T04:26:46;-1.20;99.90
6377;DHT22;3221;48.858;10.128;2022-12-11T04:29:14;-1.10;99.90
6377;DHT22;3221;48.858;10.128;2022-12-11T04:31:41;-1.10;99.90
6377;DHT22;3221;48.858;10.128;2022-12-11T04:34:07;-1.20;99.90
6377;DHT22;3221;48.858;10.128;2022-12-11T04:36:34;-1.20;99.90
6377;DHT22;3221;48.858;10.128;2022-12-11T04:39:03;-1.40;99.90
6377;DHT22;3221;48.858;10.128;2022-12-11T04:41:30;-1.30;99.90
6377;DHT22;3221;48.858;10.128;2022-12-11T04:43:57;-1.20;99.90
6377;DHT22;3221;48.858;10.128;2022-12-11T04:46:24;-1.30;99.90
6377;DHT22;3221;48.858;10.128;2022-12-11T04:48:52;-1.30;99.90
6377;DHT22;3221;48.858;10.128;2022-12-11T04:51:23;-1.30;99.90
6377;DHT22;3221;48.858;10.128;2022-12-11T04:53:50;-1.30;99.90
6377;DHT22;3221;48.858;10.128;2022-12-11T04:56:17;-1.30;99.90
6377;DHT22;3221;48.858;10.128;2022-12-11T04:58:46;-1.30;99.90
6377;DHT22;3221;48.858;10.128;2022-12-11T05:01:19;-1.20;99.90
6377;DHT22;3221;48.858;10.128;2022-12-11T05:03:46;-1.30;99.90
6377;DHT22;3221;48.858;10.128;2022-12-11T05:06:14;-1.40;99.90
6377;DHT22;3221;48.858;10.128;2022-12-11T05:08:41;-1.40;99.90
6377;DHT22;3221;48.858;10.128;2022-12-11T05:11:10;-1.50;99.90
6377;DHT22;3221;48.858;10.128;2022-12-11T05:13:38;-1.50;99.90
6377;DHT22;3221;48.858;10.128;2022-12-11T05:16:09;-1.60;99.90
6377;DHT22;3221;48.858;10.128;2022-12-11T05:18:36;-1.60;99.90
6377;DHT22;3221;48.858;10.128;2022-12-11T05:21:06;-1.50;99.90
6377;DHT22;3221;48.858;10.128;2022-12-11T05:23:33;-1.50;99.90
6377;DHT22;3221;48.858;10.128;2022-12-11T05:26:04;-1.60;99.90
6377;DHT22;3221;48.858;10.128;2022-12-11T05:28:34;-1.50;99.90
6377;DHT22;3221;48.858;10.128;2022-12-11T05:31:07;-1.50;99.90
6377;DHT22;3221;48.858;10.128;2022-12-11T05:33:34;-1.50;99.90
6377;DHT22;3221;48.858;10.128;2022-12-11T05:36:02;-1.50;99.90
6377;DHT22;3221;48.858;10.128;2022-12-11T05:38:29;-1.60;99.90
6377;DHT22;3221;48.858;10.128;2022-12-11T05:40:58;-1.60;99.90
6377;DHT22;3221;48.858;10.128;2022-12-11T05:43:26;-1.50;99.90
6377;DHT22;3221;48.858;10.128;2022-12-11T05:45:54;-1.50;99.90
6377;DHT22;3221;48.858;10.128;2022-12-11T05:48:21;-1.60;99.90
6377;DHT22;3221;48.858;10.128;2022-12-11T05:50:58;-1.40;99.90
6377;DHT22;3221;48.858;10.128;2022-12-11T05:53:25;-1.40;99.90
6377;DHT22;3221;48.858;10.128;2022-12-11T05:55:52;-1.50;99.90
6377;DHT22;3221;48.858;10.128;2022-12-11T05:58:20;-1.50;99.90
6377;DHT22;3221;48.858;10.128;2022-12-11T06:00:47;-1.50;99.90
6377;DHT22;3221;48.858;10.128;2022-12-11T06:03:14;-1.40;99.90
6377;DHT22;3221;48.858;10.128;2022-12-11T06:05:42;-1.50;99.90
6377;DHT22;3221;48.858;10.128;2022-12-11T06:08:09;-1.50;99.90
6377;DHT22;3221;48.858;10.128;2022-12-11T06:10:36;-1.50;99.90
6377;DHT22;3221;48.858;10.128;2022-12-11T06:13:03;-1.50;99.90
6377;DHT22;3221;48.858;10.128;2022-12-11T06:15:30;-1.50;99.90
6377;DHT22;3221;48.858;10.128;2022-12-11T06:17:57;-1.60;99.90
6377;DHT22;3221;48.858;10.128;2022-12-11T06:20:24;-1.50;99.90
6377;DHT22;3221;48.858;10.128;2022-12-11T06:22:51;-1.50;99.90
6377;DHT22;3221;48.858;10.128;2022-12-11T06:25:18;-1.50;99.90
6377;DHT22;3221;48.858;10.128;2022-12-11T06:27:44;-1.60;99.90
6377;DHT22;3221;48.858;10.128;2022-12-11T06:30:12;-1.50;99.90
6377;DHT22;3221;48.858;10.128;2022-12-11T06:32:38;-1.50;99.90
6377;DHT22;3221;48.858;10.128;2022-12-11T06:35:05;-1.60;99.90
6377;DHT22;3221;48.858;10.128;2022-12-11T06:37:34;-1.50;99.90
6377;DHT22;3221;48.858;10.128;2022-12-11T06:40:02;-1.60;99.90
6377;DHT22;3221;48.858;10.128;2022-12-11T06:42:30;-1.60;99.90
6377;DHT22;3221;48.858;10.128;2022-12-11T06:44:57;-1.60;99.90
6377;DHT22;3221;48.858;10.128;2022-12-11T06:47:26;-1.70;99.90
6377;DHT22;3221;48.858;10.128;2022-12-11T06:49:53;-1.40;99.90
6377;DHT22;3221;48.858;10.128;2022-12-11T06:52:21;-1.60;99.90
6377;DHT22;3221;48.858;10.128;2022-12-11T06:54:48;-1.60;99.90
6377;DHT22;3221;48.858;10.128;2022-12-11T06:57:16;-1.70;99.90
6377;DHT22;3221;48.858;10.128;2022-12-11T06:59:43;-1.60;99.90
6377;DHT22;3221;48.858;10.128;2022-12-11T07:02:14;-1.60;99.90
6377;DHT22;3221;48.858;10.128;2022-12-11T07:04:42;-1.50;99.90
6377;DHT22;3221;48.858;10.128;2022-12-11T07:07:09;-1.60;99.90
6377;DHT22;3221;48.858;10.128;2022-12-11T07:09:38;-1.60;99.90
6377;DHT22;3221;48.858;10.128;2022-12-11T07:12:05;-1.40;99.90
6377;DHT22;3221;48.858;10.128;2022-12-11T07:14:33;-1.50;99.90
6377;DHT22;3221;48.858;10.128;2022-12-11T07:16:59;-1.60;99.90
6377;DHT22;3221;48.858;10.128;2022-12-11T07:19:26;-1.60;99.90
6377;DHT22;3221;48.858;10.128;2022-12-11T07:21:53;-1.50;99.90
6377;DHT22;3221;48.858;10.128;2022-12-11T07:24:20;-1.60;99.90
6377;DHT22;3221;48.858;10.128;2022-12-11T07:26:47;-1.70;99.90
6377;DHT22;3221;48.858;10.128;2022-12-11T07:29:14;-1.70;99.90
6377;DHT22;3221;48.858;10.128;2022-12-11T07:31:41;-1.70;99.90
6377;DHT22;3221;48.858;10.128;2022-12-11T07:34:11;-1.70;99.90
6377;DHT22;3221;48.858;10.128;2022-12-11T07:36:38;-1.60;99.90
6377;DHT22;3221;48.858;10.128;2022-12-11T07:39:06;-1.50;99.90
6377;DHT22;3221;48.858;10.128;2022-12-11T07:41:34;-1.60;99.90
6377;DHT22;3221;48.858;10.128;2022-12-11T07:44:02;-1.60;99.90
6377;DHT22;3221;48.858;10.128;2022-12-11T07:46:31;-1.70;99.90
6377;DHT22;3221;48.858;10.128;2022-12-11T07:48:59;-1.70;99.90
6377;DHT22;3221;48.858;10.128;2022-12-11T07:51:31;-1.80;99.90
6377;DHT22;3221;48.858;10.128;2022-12-11T07:54:07;-1.80;99.90
6377;DHT22;3221;48.858;10.128;2022-12-11T07:56:36;-1.60;99.90
6377;DHT22;3221;48.858;10.128;2022-12-11T07:59:04;-1.60;99.90
6377;DHT22;3221;48.858;10.128;2022-12-11T08:01:33;-1.60;99.90
6377;DHT22;3221;48.858;10.128;2022-12-11T08:04:07;-1.70;99.90
6377;DHT22;3221;48.858;10.128;2022-12-11T08:06:37;-1.50;99.90
6377;DHT22;3221;48.858;10.128;2022-12-11T08:09:06;-1.60;99.90
6377;DHT22;3221;48.858;10.128;2022-12-11T08:11:33;-1.70;99.90
6377;DHT22;3221;48.858;10.128;2022-12-11T08:14:01;-1.70;99.90
6377;DHT22;3221;48.858;10.128;2022-12-11T08:16:28;-1.50;99.90
6377;DHT22;3221;48.858;10.128;2022-12-11T08:18:55;-1.60;99.90
6377;DHT22;3221;48.858;10.128;2022-12-11T08:21:24;-1.50;99.90
6377;DHT22;3221;48.858;10.128;2022-12-11T08:23:53;-1.60;99.90
6377;DHT22;3221;48.858;10.128;2022-12-11T08:26:26;-1.60;99.90
6377;DHT22;3221;48.858;10.128;2022-12-11T08:28:53;-1.60;99.90
6377;DHT22;3221;48.858;10.128;2022-12-11T08:31:20;-1.60;99.90
6377;DHT22;3221;48.858;10.128;2022-12-11T08:33:48;-1.60;99.90
6377;DHT22;3221;48.858;10.128;2022-12-11T08:36:18;-1.70;99.90
6377;DHT22;3221;48.858;10.128;2022-12-11T08:38:45;-1.70;99.90
6377;DHT22;3221;48.858;10.128;2022-12-11T08:41:15;-1.70;99.90
6377;DHT22;3221;48.858;10.128;2022-12-11T08:43:42;-1.70;99.90
6377;DHT22;3221;48.858;10.128;2022-12-11T08:46:10;-1.70;99.90
6377;DHT22;3221;48.858;10.128;2022-12-11T08:48:38;-1.60;99.90
6377;DHT22;3221;48.858;10.128;2022-12-11T08:51:09;-1.60;99.90
6377;DHT22;3221;48.858;10.128;2022-12-11T08:53:36;-1.60;99.90
6377;DHT22;3221;48.858;10.128;2022-12-11T08:56:13;-1.50;99.90
6377;DHT22;3221;48.858;10.128;2022-12-11T08:58:40;-1.60;99.90
6377;DHT22;3221;48.858;10.128;2022-12-11T09:01:11;-1.60;99.90
6377;DHT22;3221;48.858;10.128;2022-12-11T09:03:39;-1.70;99.90
6377;DHT22;3221;48.858;10.128;2022-12-11T09:06:11;-1.70;99.90
6377;DHT22;3221;48.858;10.128;2022-12-11T09:08:39;-1.70;99.90
6377;DHT22;3221;48.858;10.128;2022-12-11T09:11:11;-1.70;99.90
6377;DHT22;3221;48.858;10.128;2022-12-11T09:13:39;-1.70;99.90
6377;DHT22;3221;48.858;10.128;2022-12-11T09:16:14;-1.70;99.90
6377;DHT22;3221;48.858;10.128;2022-12-11T09:18:44;-1.70;99.90
6377;DHT22;3221;48.858;10.128;2022-12-11T09:21:13;-1.70;99.90
6377;DHT22;3221;48.858;10.128;2022-12-11T09:23:40;-1.80;99.90
6377;DHT22;3221;48.858;10.128;2022-12-11T09:26:10;-1.70;99.90
6377;DHT22;3221;48.858;10.128;2022-12-11T09:28:38;-1.70;99.90
6377;DHT22;3221;48.858;10.128;2022-12-11T09:31:17;-1.70;99.90
6377;DHT22;3221;48.858;10.128;2022-12-11T09:33:45;-1.70;99.90
6377;DHT22;3221;48.858;10.128;2022-12-11T09:36:12;-1.80;99.90
6377;DHT22;3221;48.858;10.128;2022-12-11T09:38:38;-1.80;99.90
6377;DHT22;3221;48.858;10.128;2022-12-11T09:43:56;-1.60;99.90
6377;DHT22;3221;48.858;10.128;2022-12-11T09:46:25;-1.60;99.90
6377;DHT22;3221;48.858;10.128;2022-12-11T09:49:04;-1.60;99.90
6377;DHT22;3221;48.858;10.128;2022-12-11T09:51:46;-1.60;99.90
6377;DHT22;3221;48.858;10.128;2022-12-11T09:54:15;-1.70;99.90
6377;DHT22;3221;48.858;10.128;2022-12-11T09:56:46;-1.70;99.90
6377;DHT22;3221;48.858;10.128;2022-12-11T10:07:10;-1.60;99.90
6377;DHT22;3221;48.858;10.128;2022-12-11T10:15:30;-1.60;99.90
6377;DHT22;3221;48.858;10.128;2022-12-11T10:18:02;-1.70;99.90
6377;DHT22;3221;48.858;10.128;2022-12-11T10:20:35;-1.80;99.90
6377;DHT22;3221;48.858;10.128;2022-12-11T10:23:07;-1.70;99.90
6377;DHT22;3221;48.858;10.128;2022-12-11T10:25:56;-1.60;99.90
6377;DHT22;3221;48.858;10.128;2022-12-11T10:28:26;-1.60;99.90
6377;DHT22;3221;48.858;10.128;2022-12-11T10:33:59;-1.50;99.90
6377;DHT22;3221;48.858;10.128;2022-12-11T10:36:29;-1.60;99.90
6377;DHT22;3221;48.858;10.128;2022-12-11T10:39:00;-1.50;99.90
6377;DHT22;3221;48.858;10.128;2022-12-11T10:41:36;-1.40;99.90
6377;DHT22;3221;48.858;10.128;2022-12-11T10:44:33;-1.30;99.90
6377;DHT22;3221;48.858;10.128;2022-12-11T10:47:04;-1.50;99.90
6377;DHT22;3221;48.858;10.128;2022-12-11T10:49:33;-1.50;99.90
6377;DHT22;3221;48.858;10.128;2022-12-11T10:52:01;-1.60;99.90
6377;DHT22;3221;48.858;10.128;2022-12-11T10:54:37;-1.60;99.90
6377;DHT22;3221;48.858;10.128;2022-12-11T10:57:07;-1.60;99.90
6377;DHT22;3221;48.858;10.128;2022-12-11T10:59:52;-1.60;99.90
6377;DHT22;3221;48.858;10.128;2022-12-11T11:02:38;-1.60;99.90
6377;DHT22;3221;48.858;10.128;2022-12-11T11:05:34;-1.50;99.90
6377;DHT22;3221;48.858;10.128;2022-12-11T11:08:13;-1.50;99.90
6377;DHT22;3221;48.858;10.128;2022-12-11T11:10:52;-1.50;99.90
6377;DHT22;3221;48.858;10.128;2022-12-11T11:13:22;-1.40;99.90
6377;DHT22;3221;48.858;10.128;2022-12-11T11:16:04;-1.30;99.90
6377;DHT22;3221;48.858;10.128;2022-12-11T11:18:32;-1.50;99.90
6377;DHT22;3221;48.858;10.128;2022-12-11T11:21:00;-1.50;99.90
6377;DHT22;3221;48.858;10.128;2022-12-11T11:23:28;-1.50;99.90
6377;DHT22;3221;48.858;10.128;2022-12-11T11:25:57;-1.60;99.90
6377;DHT22;3221;48.858;10.128;2022-12-11T11:28:28;-1.50;99.90
6377;DHT22;3221;48.858;10.128;2022-12-11T11:33:29;-1.40;99.90
6377;DHT22;3221;48.858;10.128;2022-12-11T11:36:21;-1.50;99.90
6377;DHT22;3221;48.858;10.128;2022-12-11T11:41:29;-1.60;99.90
6377;DHT22;3221;48.858;10.128;2022-12-11T11:43:59;-1.60;99.90
6377;DHT22;3221;48.858;10.128;2022-12-11T11:46:41;-1.60;99.90
6377;DHT22;3221;48.858;10.128;2022-12-11T11:49:15;-1.60;99.90
6377;DHT22;3221;48.858;10.128;2022-12-11T11:51:48;-1.60;99.90
6377;DHT22;3221;48.858;10.128;2022-12-11T11:56:50;-1.40;99.90
6377;DHT22;3221;48.858;10.128;2022-12-11T11:59:30;-1.40;99.90
6377;DHT22;3221;48.858;10.128;2022-12-11T12:01:57;-1.50;99.90
6377;DHT22;3221;48.858;10.128;2022-12-11T12:04:33;-1.50;99.90
6377;DHT22;3221;48.858;10.128;2022-12-11T12:15:25;-1.50;99.90
6377;DHT22;3221;48.858;10.128;2022-12-11T12:18:19;-1.60;99.90
6377;DHT22;3221;48.858;10.128;2022-12-11T12:20:59;-1.50;99.90
6377;DHT22;3221;48.858;10.128;2022-12-11T12:28:47;-1.50;99.90
6377;DHT22;3221;48.858;10.128;2022-12-11T12:31:43;-1.40;99.90
6377;DHT22;3221;48.858;10.128;2022-12-11T12:42:40;-1.60;99.90
6377;DHT22;3221;48.858;10.128;2022-12-11T12:47:42;-1.60;99.90
6377;DHT22;3221;48.858;10.128;2022-12-11T12:50:25;-1.50;99.90
6377;DHT22;3221;48.858;10.128;2022-12-11T12:52:53;-1.60;99.90
6377;DHT22;3221;48.858;10.128;2022-12-11T12:55:28;-1.60;99.90
6377;DHT22;3221;48.858;10.128;2022-12-11T12:57:59;-1.60;99.90
6377;DHT22;3221;48.858;10.128;2022-12-11T13:03:24;-1.50;99.90
6377;DHT22;3221;48.858;10.128;2022-12-11T13:08:48;-1.40;99.90
6377;DHT22;3221;48.858;10.128;2022-12-11T13:11:16;-1.50;99.90
6377;DHT22;3221;48.858;10.128;2022-12-11T13:13:48;-1.50;99.90
6377;DHT22;3221;48.858;10.128;2022-12-11T13:16:38;-1.40;99.90
6377;DHT22;3221;48.858;10.128;2022-12-11T13:24:56;-1.30;99.90
6377;DHT22;3221;48.858;10.128;2022-12-11T13:27:39;-1.30;99.90
6377;DHT22;3221;48.858;10.128;2022-12-11T13:35:20;-1.40;99.90
6377;DHT22;3221;48.858;10.128;2022-12-11T13:37:49;-1.50;99.90
6377;DHT22;3221;48.858;10.128;2022-12-11T13:40:23;-1.40;99.90
6377;DHT22;3221;48.858;10.128;2022-12-11T13:42:58;-1.40;99.90
6377;DHT22;3221;48.858;10.128;2022-12-11T13:45:27;-1.40;99.90
6377;DHT22;3221;48.858;10.128;2022-12-11T13:47:56;-1.40;99.90
6377;DHT22;3221;48.858;10.128;2022-12-11T13:50:28;-1.40;99.90
6377;DHT22;3221;48.858;10.128;2022-12-11T13:53:00;-1.30;99.90
6377;DHT22;3221;48.858;10.128;2022-12-11T13:55:32;-1.40;99.90
6377;DHT22;3221;48.858;10.128;2022-12-11T13:58:01;-1.40;99.90
6377;DHT22;3221;48.858;10.128;2022-12-11T14:00:30;-1.40;99.90
6377;DHT22;3221;48.858;10.128;2022-12-11T14:03:02;-1.40;99.90
6377;DHT22;3221;48.858;10.128;2022-12-11T14:05:30;-1.30;99.90
6377;DHT22;3221;48.858;10.128;2022-12-11T14:07:59;-1.40;99.90
6377;DHT22;3221;48.858;10.128;2022-12-11T14:10:31;-1.40;99.90
6377;DHT22;3221;48.858;10.128;2022-12-11T14:15:26;-1.30;99.90
6377;DHT22;3221;48.858;10.128;2022-12-11T14:17:54;-1.30;99.90
6377;DHT22;3221;48.858;10.128;2022-12-11T14:20:24;-1.20;99.90
6377;DHT22;3221;48.858;10.128;2022-12-11T14:22:51;-1.20;99.90
6377;DHT22;3221;48.858;10.128;2022-12-11T14:25:24;-1.40;99.90
6377;DHT22;3221;48.858;10.128;2022-12-11T14:27:55;-1.20;99.90
6377;DHT22;3221;48.858;10.128;2022-12-11T14:30:28;-1.30;99.90
6377;DHT22;3221;48.858;10.128;2022-12-11T14:33:02;-1.30;99.90
6377;DHT22;3221;48.858;10.128;2022-12-11T14:35:37;-1.40;99.90
6377;DHT22;3221;48.858;10.128;2022-12-11T14:38:22;-1.30;99.90
6377;DHT22;3221;48.858;10.128;2022-12-11T14:40:54;-1.30;99.90
6377;DHT22;3221;48.858;10.128;2022-12-11T14:43:32;-1.20;99.90
6377;DHT22;3221;48.858;10.128;2022-12-11T14:46:07;-1.30;99.90
6377;DHT22;3221;48.858;10.128;2022-12-11T14:48:43;-1.30;99.90
6377;DHT22;3221;48.858;10.128;2022-12-11T14:51:15;-1.30;99.90
6377;DHT22;3221;48.858;10.128;2022-12-11T14:53:46;-1.40;99.90
6377;DHT22;3221;48.858;10.128;2022-12-11T14:56:23;-1.40;99.90
6377;DHT22;3221;48.858;10.128;2022-12-11T14:58:59;-1.30;99.90
6377;DHT22;3221;48.858;10.128;2022-12-11T15:01:30;-1.30;99.90
6377;DHT22;3221;48.858;10.128;2022-12-11T15:04:22;-1.30;99.90
6377;DHT22;3221;48.858;10.128;2022-12-11T15:06:50;-1.40;99.90
6377;DHT22;3221;48.858;10.128;2022-12-11T15:11:55;-1.50;99.90
6377;DHT22;3221;48.858;10.128;2022-12-11T15:14:23;-1.40;99.90
6377;DHT22;3221;48.858;10.128;2022-12-11T15:16:52;-1.50;99.90
6377;DHT22;3221;48.858;10.128;2022-12-11T15:19:27;-1.50;99.90
6377;DHT22;3221;48.858;10.128;2022-12-11T15:22:03;-1.50;99.90
6377;DHT22;3221;48.858;10.128;2022-12-11T15:24:37;-1.50;99.90
6377;DHT22;3221;48.858;10.128;2022-12-11T15:27:21;-1.50;99.90
6377;DHT22;3221;48.858;10.128;2022-12-11T15:29:49;-1.50;99.90
6377;DHT22;3221;48.858;10.128;2022-12-11T15:32:18;-1.40;99.90
6377;DHT22;3221;48.858;10.128;2022-12-11T15:34:54;-1.40;99.90
6377;DHT22;3221;48.858;10.128;2022-12-11T15:37:30;-1.40;99.90
6377;DHT22;3221;48.858;10.128;2022-12-11T15:40:00;-1.50;99.90
6377;DHT22;3221;48.858;10.128;2022-12-11T15:42:34;-1.50;99.90
6377;DHT22;3221;48.858;10.128;2022-12-11T15:45:05;-1.20;99.90
6377;DHT22;3221;48.858;10.128;2022-12-11T15:47:32;-1.30;99.90
6377;DHT22;3221;48.858;10.128;2022-12-11T15:50:06;-1.40;99.90
6377;DHT22;3221;48.858;10.128;2022-12-11T15:52:33;-1.50;99.90
6377;DHT22;3221;48.858;10.128;2022-12-11T15:55:00;-1.50;99.90
6377;DHT22;3221;48.858;10.128;2022-12-11T15:57:27;-1.50;99.90
6377;DHT22;3221;48.858;10.128;2022-12-11T15:59:54;-1.50;99.90
6377;DHT22;3221;48.858;10.128;2022-12-11T16:02:21;-1.60;99.90
6377;DHT22;3221;48.858;10.128;2022-12-11T16:04:50;-1.60;99.90
6377;DHT22;3221;48.858;10.128;2022-12-11T16:07:24;-1.60;99.90
6377;DHT22;3221;48.858;10.128;2022-12-11T16:09:52;-1.60;99.90
6377;DHT22;3221;48.858;10.128;2022-12-11T16:12:19;-1.70;99.90
6377;DHT22;3221;48.858;10.128;2022-12-11T16:14:46;-1.70;99.90
6377;DHT22;3221;48.858;10.128;2022-12-11T16:17:14;-1.70;99.90
6377;DHT22;3221;48.858;10.128;2022-12-11T16:19:41;-1.60;99.90
6377;DHT22;3221;48.858;10.128;2022-12-11T16:22:09;-1.60;99.90
6377;DHT22;3221;48.858;10.128;2022-12-11T16:24:37;-1.70;99.90
6377;DHT22;3221;48.858;10.128;2022-12-11T16:27:06;-1.70;99.90
6377;DHT22;3221;48.858;10.128;2022-12-11T16:29:37;-1.70;99.90
6377;DHT22;3221;48.858;10.128;2022-12-11T16:32:04;-1.50;99.90
6377;DHT22;3221;48.858;10.128;2022-12-11T16:34:34;-1.50;99.90
6377;DHT22;3221;48.858;10.128;2022-12-11T16:37:02;-1.60;99.90
6377;DHT22;3221;48.858;10.128;2022-12-11T16:39:30;-1.60;99.90
6377;DHT22;3221;48.858;10.128;2022-12-11T16:41:56;-1.60;99.90
6377;DHT22;3221;48.858;10.128;2022-12-11T16:44:25;-1.50;99.90
6377;DHT22;3221;48.858;10.128;2022-12-11T16:46:53;-1.70;99.90
6377;DHT22;3221;48.858;10.128;2022-12-11T16:49:21;-1.70;99.90
6377;DHT22;3221;48.858;10.128;2022-12-11T16:51:48;-1.60;99.90
6377;DHT22;3221;48.858;10.128;2022-12-11T16:54:15;-1.50;99.90
6377;DHT22;3221;48.858;10.128;2022-12-11T16:56:43;-1.40;99.90
6377;DHT22;3221;48.858;10.128;2022-12-11T16:59:10;-1.50;99.90
6377;DHT22;3221;48.858;10.128;2022-12-11T17:01:38;-1.60;99.90
6377;DHT22;3221;48.858;10.128;2022-12-11T17:04:05;-1.60;99.90
6377;DHT22;3221;48.858;10.128;2022-12-11T17:06:32;-1.70;99.90
6377;DHT22;3221;48.858;10.128;2022-12-11T17:08:59;-1.70;99.90
6377;DHT22;3221;48.858;10.128;2022-12-11T17:11:26;-1.70;99.90
6377;DHT22;3221;48.858;10.128;2022-12-11T17:13:54;-1.70;99.90
6377;DHT22;3221;48.858;10.128;2022-12-11T17:16:22;-1.60;99.90
6377;DHT22;3221;48.858;10.128;2022-12-11T17:18:52;-1.70;99.90
6377;DHT22;3221;48.858;10.128;2022-12-11T17:21:20;-1.60;99.90
6377;DHT22;3221;48.858;10.128;2022-12-11T17:23:48;-1.60;99.90
6377;DHT22;3221;48.858;10.128;2022-12-11T17:26:16;-1.70;99.90
6377;DHT22;3221;48.858;10.128;2022-12-11T17:28:43;-1.70;99.90
6377;DHT22;3221;48.858;10.128;2022-12-11T17:31:16;-1.70;99.90